Time;durP1;ratioP1;P1;durP2;ratioP2;P2;SDS_P1;SDS_P2;PMS_P1;PMS_P2;Temp;Humidity;BMP_temperature;BMP_pressure;BME280_temperature;BME280_humidity;BME280_pressure;Samples;Min_cycle;Max_cycle;Signal;HPM_P1;HPM_P2
2022/04/12 00:01:19;;;;;;;9.88;4.28;;;;;;;11.82;44.35;101015.25;5055673;28;20471;-63
2022/04/12 00:03:45;;;;;;;7.25;3.83;;;;;;;11.80;44.92;101019.63;5073286;28;20477;-63
2022/04/12 00:06:10;;;;;;;7.20;4.18;;;;;;;11.77;45.01;101009.00;5073240;28;20027;-63
2022/04/12 00:08:35;;;;;;;6.35;3.70;;;;;;;11.74;44.82;101007.22;5073499;28;20035;-62
2022/04/12 00:11:01;;;;;;;7.22;3.90;;;;;;;11.72;45.01;101000.13;5073015;28;20036;-63
2022/04/12 00:13:26;;;;;;;4.75;3.47;;;;;;;11.71;45.23;100990.41;5073085;28;20067;-63
2022/04/12 00:15:52;;;;;;;11.15;4.00;;;;;;;11.67;44.98;100993.91;5073378;28;20476;-63
2022/04/12 00:21:02;;;;;;;6.78;3.97;;;;;;;11.63;45.55;100987.69;5073475;28;20035;-63
2022/04/12 00:23:28;;;;;;;8.38;4.43;;;;;;;11.63;45.30;100985.06;5073140;28;20060;-63
2022/04/12 00:25:54;;;;;;;6.72;4.22;;;;;;;11.61;45.39;100986.81;5072995;28;20056;-63
2022/04/12 00:28:20;;;;;;;8.90;3.90;;;;;;;11.59;45.36;100991.19;5073081;28;20499;-62
2022/04/12 00:30:46;;;;;;;7.10;4.18;;;;;;;11.52;45.53;100984.97;5072922;28;20192;-62
2022/04/12 00:33:11;;;;;;;8.70;4.28;;;;;;;11.49;45.64;100977.00;5072989;28;20104;-62
2022/04/12 00:35:37;;;;;;;7.38;4.10;;;;;;;11.44;46.08;100985.78;5073026;28;20435;-62
2022/04/12 00:38:13;;;;;;;8.38;4.10;;;;;;;11.45;46.01;100984.91;5073145;28;20035;-62
2022/04/12 00:40:40;;;;;;;8.45;4.30;;;;;;;11.42;46.27;100987.50;5072823;28;20079;-62
2022/04/12 00:43:06;;;;;;;11.05;4.15;;;;;;;11.38;46.33;100983.06;5072956;28;20112;-62
2022/04/12 00:45:31;;;;;;;5.97;3.70;;;;;;;11.35;46.16;100983.03;5072872;28;20107;-62
2022/04/12 00:47:57;;;;;;;6.68;4.13;;;;;;;11.31;46.59;100984.78;5075298;28;20067;-62
2022/04/12 00:50:22;;;;;;;8.75;4.05;;;;;;;11.25;46.93;100980.28;5076809;28;20078;-62
2022/04/12 00:52:51;;;;;;;9.15;4.18;;;;;;;11.21;47.26;100986.41;5076902;28;20024;-62
2022/04/12 00:55:17;;;;;;;6.43;3.63;;;;;;;11.21;46.55;100986.41;5076773;28;20048;-63
2022/04/12 00:57:42;;;;;;;6.82;3.72;;;;;;;11.18;46.95;100973.19;5076847;28;20052;-65
2022/04/12 01:00:20;;;;;;;6.15;3.85;;;;;;;11.21;46.79;100969.66;5076979;28;20024;-65
2022/04/12 01:02:46;;;;;;;9.45;4.10;;;;;;;11.20;46.95;100973.19;5076303;28;20476;-63
2022/04/12 01:05:12;;;;;;;6.85;3.75;;;;;;;11.20;46.86;100982.00;5076619;28;20485;-62
2022/04/12 01:07:37;;;;;;;6.35;3.80;;;;;;;11.20;46.94;100989.94;5076671;28;20021;-62
2022/04/12 01:10:06;;;;;;;5.70;3.90;;;;;;;11.22;46.99;100985.56;5076299;28;20021;-62
2022/04/12 01:12:38;;;;;;;10.45;4.20;;;;;;;11.24;47.04;100983.81;5076705;28;20070;-63
2022/04/12 01:15:30;;;;;;;6.60;3.85;;;;;;;11.25;46.78;100975.00;5076570;28;20107;-62
2022/04/12 01:17:56;;;;;;;6.32;3.83;;;;;;;11.24;46.96;100975.00;5071486;28;20075;-62
2022/04/12 01:20:30;;;;;;;6.80;3.90;;;;;;;11.22;47.15;100976.72;5076259;28;20563;-63
2022/04/12 01:22:57;;;;;;;6.93;3.67;;;;;;;11.22;46.71;100971.44;5076616;28;20454;-62
2022/04/12 01:25:23;;;;;;;6.70;3.70;;;;;;;11.18;47.13;100978.47;5076196;28;20033;-62
2022/04/12 01:27:48;;;;;;;6.90;3.85;;;;;;;11.13;47.04;100971.34;5076220;28;20070;-62
2022/04/12 01:30:14;;;;;;;6.70;3.88;;;;;;;11.17;47.16;100981.09;5076188;28;20078;-62
2022/04/12 01:32:40;;;;;;;6.45;3.92;;;;;;;11.16;47.02;100974.03;5076247;28;20024;-62
2022/04/12 01:35:07;;;;;;;7.47;3.50;;;;;;;11.15;47.33;100974.91;5075900;28;20032;-62
2022/04/12 01:37:32;;;;;;;6.38;3.95;;;;;;;11.11;47.33;100979.28;5076318;28;20389;-62
2022/04/12 01:40:04;;;;;;;6.20;3.70;;;;;;;11.14;47.14;100981.06;5075933;28;20517;-62
2022/04/12 01:42:29;;;;;;;6.35;3.70;;;;;;;11.14;47.25;100975.78;5075928;28;20391;-62
2022/04/12 01:44:54;;;;;;;7.63;3.53;;;;;;;11.15;47.15;100969.63;5075954;28;20032;-63
2022/04/12 01:47:20;;;;;;;6.05;3.33;;;;;;;11.16;47.58;100968.75;5075897;28;20016;-62
2022/04/12 01:49:45;;;;;;;5.93;3.80;;;;;;;11.14;47.61;100976.66;5075563;28;20043;-62
2022/04/12 01:52:10;;;;;;;5.97;3.85;;;;;;;11.11;47.62;100966.03;5075826;28;20074;-63
2022/04/12 01:54:37;;;;;;;5.68;3.67;;;;;;;11.06;48.04;100961.59;5075715;28;20024;-62
2022/04/12 01:57:03;;;;;;;8.43;4.47;;;;;;;11.06;47.69;100969.53;5075740;28;20036;-62
2022/04/12 01:59:28;;;;;;;5.90;3.40;;;;;;;10.99;47.78;100963.25;5075589;28;20029;-62
2022/04/12 02:01:54;;;;;;;7.45;3.78;;;;;;;11.00;48.39;100957.09;5075572;28;20132;-62
2022/04/12 02:04:19;;;;;;;7.47;3.75;;;;;;;10.99;48.29;100953.56;5075519;28;20086;-63
2022/04/12 02:06:45;;;;;;;7.55;3.55;;;;;;;10.88;48.39;100939.38;5075396;28;20493;-62
2022/04/12 02:09:10;;;;;;;7.95;4.07;;;;;;;10.90;48.48;100956.13;5075746;28;20021;-62
2022/04/12 02:11:36;;;;;;;7.05;3.85;;;;;;;10.87;48.59;100957.84;5075768;28;20027;-62
2022/04/12 02:14:01;;;;;;;6.00;3.67;;;;;;;10.82;48.72;100962.19;5075717;28;20501;-62
2022/04/12 02:16:28;;;;;;;6.40;3.72;;;;;;;10.81;48.74;100963.94;5077508;28;20030;-62
2022/04/12 02:18:53;;;;;;;7.32;3.67;;;;;;;10.76;48.76;100961.25;5077725;28;20028;-61
2022/04/12 02:21:19;;;;;;;8.18;4.10;;;;;;;10.76;48.98;100961.25;5075940;28;20450;-62
2022/04/12 02:23:44;;;;;;;7.25;3.83;;;;;;;10.73;49.31;100965.63;5075353;28;20028;-62
2022/04/12 02:26:10;;;;;;;7.30;4.00;;;;;;;10.69;49.23;100953.22;5075233;28;20066;-62
2022/04/12 02:28:35;;;;;;;7.22;4.10;;;;;;;10.69;49.37;100958.50;5075166;28;20027;-62
2022/04/12 02:31:01;;;;;;;9.80;3.90;;;;;;;10.65;49.68;100960.22;5075017;28;20021;-63
2022/04/12 02:33:26;;;;;;;6.07;3.85;;;;;;;10.64;49.83;100955.81;5074994;28;20031;-62
2022/04/12 02:35:52;;;;;;;7.55;3.90;;;;;;;10.65;49.57;100965.50;5074980;28;20051;-64
2022/04/12 02:38:17;;;;;;;8.15;4.18;;;;;;;10.60;49.95;100956.66;5074809;28;20481;-62
2022/04/12 02:40:43;;;;;;;8.50;3.92;;;;;;;10.56;49.98;100957.47;5056940;28;20028;-62
2022/04/12 02:43:08;;;;;;;6.88;4.00;;;;;;;10.54;50.15;100953.94;5075022;28;20059;-63
2022/04/12 02:45:34;;;;;;;7.25;3.85;;;;;;;10.52;50.34;100948.63;5074824;28;20378;-62
2022/04/12 02:47:59;;;;;;;7.78;4.28;;;;;;;10.49;50.39;100951.25;5074670;28;20025;-62
2022/04/12 02:50:25;;;;;;;6.60;4.25;;;;;;;10.50;50.62;100952.13;5074579;28;20063;-63
2022/04/12 02:52:50;;;;;;;7.35;4.25;;;;;;;10.47;50.55;100946.78;5074491;28;20032;-62
2022/04/12 02:55:16;;;;;;;6.55;4.00;;;;;;;10.44;50.62;100936.19;5074667;28;20024;-62
2022/04/12 02:57:41;;;;;;;6.47;4.10;;;;;;;10.41;50.75;100939.69;5074554;28;20032;-62
2022/04/12 03:00:07;;;;;;;6.55;4.30;;;;;;;10.40;50.73;100932.59;5074525;28;20027;-62
2022/04/12 03:02:32;;;;;;;8.52;3.90;;;;;;;10.35;50.96;100925.50;5074206;28;20044;-62
2022/04/12 03:05:04;;;;;;;7.22;4.25;;;;;;;10.33;50.92;100920.22;5074331;28;20024;-62
2022/04/12 03:07:29;;;;;;;6.70;4.20;;;;;;;10.33;51.28;100929.91;5074019;28;20386;-63
2022/04/12 03:09:55;;;;;;;9.02;4.20;;;;;;;10.30;51.40;100929.84;5073427;28;20031;-62
2022/04/12 03:12:20;;;;;;;6.85;4.60;;;;;;;10.28;51.53;100928.06;5074254;28;20021;-62
2022/04/12 03:14:46;;;;;;;8.05;4.15;;;;;;;10.27;51.47;100933.31;5074428;28;20036;-63
2022/04/12 03:17:11;;;;;;;6.60;4.40;;;;;;;10.26;51.56;100921.00;5074258;28;20103;-62
2022/04/12 03:19:37;;;;;;;9.18;4.70;;;;;;;10.25;51.65;100912.19;5074104;28;20021;-62
2022/04/12 03:22:03;;;;;;;8.25;4.40;;;;;;;10.19;51.81;100908.53;5073994;28;20020;-62
2022/04/12 03:24:30;;;;;;;10.00;4.45;;;;;;;10.13;52.02;100911.97;5073888;28;20027;-62
2022/04/12 03:26:57;;;;;;;8.65;4.45;;;;;;;10.10;52.28;100906.66;5074198;28;20024;-63
2022/04/12 03:29:22;;;;;;;9.30;4.68;;;;;;;10.05;52.25;100892.50;5074017;28;20016;-62
2022/04/12 03:31:48;;;;;;;8.60;4.70;;;;;;;10.04;52.57;100894.25;5055849;28;20031;-63
2022/04/12 03:34:14;;;;;;;8.38;4.80;;;;;;;10.01;52.72;100891.56;5073942;28;20433;-62
2022/04/12 03:36:39;;;;;;;7.20;4.43;;;;;;;10.00;52.69;100896.84;5073711;28;20477;-62
2022/04/12 03:39:05;;;;;;;8.57;4.22;;;;;;;10.01;52.58;100895.97;5073602;28;20028;-62
2022/04/12 03:41:30;;;;;;;6.85;4.45;;;;;;;10.00;52.44;100894.19;5073686;28;20024;-62
2022/04/12 03:43:56;;;;;;;8.43;4.50;;;;;;;9.98;52.46;100896.84;5073702;28;20423;-63
2022/04/12 03:46:21;;;;;;;7.07;4.18;;;;;;;9.95;52.69;100895.91;5073586;28;20542;-63
2022/04/12 03:48:47;;;;;;;7.72;4.32;;;;;;;9.97;52.39;100902.94;5073564;28;20040;-62
2022/04/12 03:51:13;;;;;;;7.40;4.47;;;;;;;9.97;52.77;100905.59;5073396;28;20051;-62
2022/04/12 03:53:39;;;;;;;9.48;4.65;;;;;;;9.97;52.62;100902.94;5073383;28;20028;-62
2022/04/12 03:56:07;;;;;;;6.63;4.22;;;;;;;10.00;52.82;100902.13;5073713;28;20158;-63
2022/04/12 03:58:35;;;;;;;6.72;4.38;;;;;;;9.97;52.49;100902.94;5073430;28;20029;-63
2022/04/12 04:01:02;;;;;;;7.57;4.50;;;;;;;9.97;52.99;100896.78;5073364;28;20439;-63
2022/04/12 04:03:28;;;;;;;7.70;4.57;;;;;;;9.95;52.96;100885.34;5073230;28;20078;-63
2022/04/12 04:05:55;;;;;;;7.55;4.38;;;;;;;9.91;53.13;100875.59;5073542;28;20025;-63
2022/04/12 04:08:23;;;;;;;13.63;5.13;;;;;;;9.85;53.40;100880.78;5073196;28;20531;-63
2022/04/12 04:10:49;;;;;;;9.60;4.53;;;;;;;9.82;53.67;100889.56;5055737;28;20086;-63
2022/04/12 04:13:15;;;;;;;8.38;4.63;;;;;;;9.83;53.45;100890.44;5073244;28;20028;-63
2022/04/12 04:15:40;;;;;;;7.05;4.35;;;;;;;9.84;53.83;100890.44;5073247;28;20062;-62
2022/04/12 04:18:09;;;;;;;9.68;4.85;;;;;;;9.84;53.85;100890.44;5073166;28;20047;-63
2022/04/12 04:20:34;;;;;;;7.72;4.75;;;;;;;9.81;53.65;100890.44;5073110;28;20429;-62
2022/04/12 04:23:00;;;;;;;8.73;4.88;;;;;;;9.82;53.67;100892.19;5073249;28;20021;-63
2022/04/12 04:25:26;;;;;;;9.27;4.32;;;;;;;9.81;54.01;100898.34;5073111;28;20029;-62
2022/04/12 04:27:52;;;;;;;7.28;4.32;;;;;;;9.83;53.93;100891.31;5073197;28;20028;-63
2022/04/12 04:30:19;;;;;;;10.10;4.97;;;;;;;9.78;54.16;100900.94;5073063;28;20064;-63
2022/04/12 04:32:44;;;;;;;9.05;4.63;;;;;;;9.80;53.94;100893.91;5072982;28;20031;-62
2022/04/12 04:35:10;;;;;;;9.77;4.85;;;;;;;9.80;54.37;100901.81;5073051;28;20028;-62
2022/04/12 04:37:49;;;;;;;9.65;4.70;;;;;;;9.79;53.94;100890.38;5073055;28;20477;-63
2022/04/12 04:40:16;;;;;;;8.20;4.70;;;;;;;9.74;54.34;100885.91;5072951;28;20020;-63
2022/04/12 04:42:44;;;;;;;15.20;8.05;;;;;;;9.73;54.67;100892.06;5072838;28;20478;-62
2022/04/12 04:45:10;;;;;;;7.82;4.75;;;;;;;9.71;54.34;100896.41;5072837;28;20501;-63
2022/04/12 04:47:57;;;;;;;9.05;4.90;;;;;;;9.69;54.24;100884.97;5072971;28;20024;-63
2022/04/12 04:50:24;;;;;;;9.23;4.80;;;;;;;9.69;54.94;100887.59;5072832;28;20093;-63
2022/04/12 04:52:50;;;;;;;8.68;4.63;;;;;;;9.72;54.59;100898.19;5072512;28;20032;-63
2022/04/12 04:55:16;;;;;;;8.60;4.80;;;;;;;9.65;54.62;100917.44;5072098;28;20050;-63
2022/04/12 04:57:43;;;;;;;10.48;4.97;;;;;;;9.59;54.81;100920.84;5072326;28;20082;-63
2022/04/12 05:00:18;;;;;;;7.32;4.60;;;;;;;9.57;54.69;100927.88;5072221;28;20107;-62
2022/04/12 05:02:48;;;;;;;7.97;4.57;;;;;;;9.54;54.89;100928.69;5071908;28;20037;-62
2022/04/12 05:05:15;;;;;;;8.77;4.70;;;;;;;9.58;55.46;100926.13;5071945;28;20031;-63
2022/04/12 05:07:44;;;;;;;8.88;4.95;;;;;;;9.59;54.66;100934.03;5072195;28;20420;-63
2022/04/12 05:10:14;;;;;;;8.95;4.78;;;;;;;9.62;54.54;100942.00;5071968;28;20042;-63
2022/04/12 05:12:39;;;;;;;13.98;5.07;;;;;;;9.67;54.86;100935.06;5072119;28;20435;-63
2022/04/12 05:15:05;;;;;;;8.10;4.70;;;;;;;9.72;54.34;100935.13;5072206;28;20536;-63
2022/04/12 05:17:31;;;;;;;7.25;4.78;;;;;;;9.77;54.18;100921.16;5071955;28;20056;-62
2022/04/12 05:19:57;;;;;;;10.02;5.03;;;;;;;9.87;54.39;100930.09;5071937;28;20036;-63
2022/04/12 05:22:24;;;;;;;8.30;5.03;;;;;;;9.94;54.42;100912.59;5073069;28;20025;-62
2022/04/12 05:24:50;;;;;;;7.80;4.68;;;;;;;9.96;54.89;100913.50;5073047;28;20055;-62
2022/04/12 05:27:16;;;;;;;9.90;4.88;;;;;;;10.01;56.54;100914.44;5074880;28;20461;-63
2022/04/12 05:29:42;;;;;;;9.50;4.90;;;;;;;10.08;55.15;100918.97;5072442;28;20032;-62
2022/04/12 05:32:09;;;;;;;10.68;7.25;;;;;;;10.16;54.76;100912.03;5072470;28;20039;-63
2022/04/12 05:34:39;;;;;;;10.20;6.43;;;;;;;10.26;55.08;100916.59;5074729;28;20020;-62
2022/04/12 05:37:04;;;;;;;9.88;6.00;;;;;;;10.34;55.20;100907.88;5075551;28;20078;-62
2022/04/12 05:39:31;;;;;;;7.22;4.82;;;;;;;10.40;54.29;100913.22;5075703;28;20037;-62
2022/04/12 05:42:01;;;;;;;9.68;5.20;;;;;;;10.46;54.36;100915.97;5057265;28;20032;-63
2022/04/12 05:44:28;;;;;;;10.52;5.10;;;;;;;10.44;54.51;100915.06;5075369;28;20371;-63
2022/04/12 05:46:54;;;;;;;9.50;5.25;;;;;;;10.41;54.44;100922.97;5075739;28;20048;-62
2022/04/12 05:49:20;;;;;;;7.30;4.75;;;;;;;10.41;54.11;100904.47;5074996;28;20029;-62
2022/04/12 05:51:45;;;;;;;9.02;5.30;;;;;;;10.39;54.22;100901.78;5075441;28;20021;-63
2022/04/12 05:54:10;;;;;;;9.35;5.38;;;;;;;10.32;54.40;100907.88;5075118;28;20021;-62
2022/04/12 05:56:36;;;;;;;7.50;4.68;;;;;;;10.36;54.65;100927.28;5075434;28;20071;-63
2022/04/12 05:59:01;;;;;;;8.98;4.97;;;;;;;10.35;54.09;100931.66;5075071;28;20019;-63
2022/04/12 06:01:26;;;;;;;10.40;5.30;;;;;;;10.35;54.01;100934.31;5074538;28;20052;-63
2022/04/12 06:03:52;;;;;;;10.40;5.20;;;;;;;10.41;53.78;100926.47;5074537;28;20099;-63
2022/04/12 06:06:18;;;;;;;10.10;5.28;;;;;;;10.49;53.93;100924.81;5074994;28;20040;-62
2022/04/12 06:08:43;;;;;;;8.63;4.97;;;;;;;10.61;53.93;100918.78;5075108;28;20032;-63
2022/04/12 06:11:08;;;;;;;9.68;5.20;;;;;;;10.69;53.94;100919.75;5075078;28;20028;-63
2022/04/12 06:13:34;;;;;;;8.05;5.25;;;;;;;10.78;53.55;100917.22;5074956;28;20453;-62
2022/04/12 06:15:59;;;;;;;12.10;5.40;;;;;;;10.91;53.81;100920.88;5074765;28;20033;-63
2022/04/12 06:18:25;;;;;;;11.18;5.72;;;;;;;11.09;53.44;100924.56;5074821;28;20016;-63
2022/04/12 06:20:50;;;;;;;10.30;5.22;;;;;;;11.31;53.05;100925.69;5074323;28;20119;-63
2022/04/12 06:23:17;;;;;;;9.82;5.30;;;;;;;11.53;52.26;100922.34;5074643;28;20044;-62
2022/04/12 06:25:43;;;;;;;9.68;5.60;;;;;;;11.68;51.69;100924.22;5074533;28;20060;-63
2022/04/12 06:28:09;;;;;;;11.10;5.20;;;;;;;11.84;51.42;100925.25;5074628;28;20096;-62
2022/04/12 06:30:34;;;;;;;12.77;5.50;;;;;;;11.98;50.77;100919.16;5074729;28;20376;-63
2022/04/12 06:32:59;;;;;;;12.57;5.40;;;;;;;12.14;50.62;100916.59;5074589;28;20107;-63
2022/04/12 06:35:25;;;;;;;8.43;5.43;;;;;;;12.20;50.17;100921.94;5074220;28;20021;-63
2022/04/12 06:37:56;;;;;;;9.40;5.57;;;;;;;12.23;50.13;100928.13;5074164;28;20511;-63
2022/04/12 06:40:23;;;;;;;9.80;5.28;;;;;;;12.33;49.99;100922.88;5074465;28;20106;-63
2022/04/12 06:42:50;;;;;;;11.20;5.25;;;;;;;12.34;50.66;100922.91;5074153;28;20032;-63
2022/04/12 06:45:16;;;;;;;11.50;5.97;;;;;;;12.31;50.28;100930.81;5073112;28;20536;-63
2022/04/12 06:48:05;;;;;;;9.82;5.32;;;;;;;12.26;50.13;100928.16;5074029;28;20020;-63
2022/04/12 06:50:32;;;;;;;11.18;5.60;;;;;;;12.25;50.27;100920.22;5032255;28;20050;-62
2022/04/12 06:52:58;;;;;;;10.80;5.75;;;;;;;12.34;50.44;100917.59;5031882;28;20207;-63
2022/04/12 06:55:23;;;;;;;12.70;5.55;;;;;;;12.47;50.29;100908.81;5032069;28;20033;-63
2022/04/12 06:57:49;;;;;;;11.93;5.68;;;;;;;12.52;50.41;100892.94;5032019;28;20052;-63
2022/04/12 07:00:17;;;;;;;10.70;5.70;;;;;;;12.66;50.09;100900.94;5032071;28;20033;-62
2022/04/12 07:02:43;;;;;;;9.55;5.65;;;;;;;12.96;49.29;100908.94;5031345;28;20034;-63
2022/04/12 07:05:09;;;;;;;13.88;5.97;;;;;;;13.23;48.95;100920.50;5031764;28;20029;-63
2022/04/12 07:07:38;;;;;;;10.90;5.28;;;;;;;13.51;48.60;100924.97;5031746;28;20117;-63
2022/04/12 07:10:06;;;;;;;9.18;5.38;;;;;;;13.74;47.95;100913.44;5031627;28;20072;-62
2022/04/12 07:12:32;;;;;;;10.70;5.55;;;;;;;13.85;46.76;100905.47;5031904;28;20060;-63
2022/04/12 07:14:57;;;;;;;9.40;5.43;;;;;;;13.93;46.54;100898.38;5031473;28;20069;-63
2022/04/12 07:17:23;;;;;;;9.18;5.50;;;;;;;14.17;46.35;100900.06;5031297;28;20072;-63
2022/04/12 07:19:48;;;;;;;10.15;5.25;;;;;;;14.47;46.76;100899.97;5031356;28;20071;-63
2022/04/12 07:22:14;;;;;;;8.85;5.10;;;;;;;14.77;45.48;100896.31;5031508;28;20037;-63
2022/04/12 07:24:39;;;;;;;12.27;5.95;;;;;;;14.92;44.49;100908.63;5031421;28;20040;-63
2022/04/12 07:27:05;;;;;;;12.63;5.15;;;;;;;15.11;44.80;100925.34;5045019;28;20508;-63
2022/04/12 07:29:30;;;;;;;9.43;5.20;;;;;;;15.17;42.98;100928.00;5073370;28;20082;-64
2022/04/12 07:31:56;;;;;;;9.40;5.22;;;;;;;15.30;42.73;100910.16;5073381;28;20032;-63
2022/04/12 07:34:22;;;;;;;11.95;5.40;;;;;;;15.45;42.60;100907.34;5073148;28;20052;-63
2022/04/12 07:36:53;;;;;;;9.27;5.32;;;;;;;15.56;42.23;100901.06;5073219;28;20063;-63
2022/04/12 07:39:19;;;;;;;7.88;5.30;;;;;;;15.63;42.40;100897.44;5073351;28;20107;-63
2022/04/12 07:41:45;;;;;;;11.88;6.05;;;;;;;15.78;43.23;100897.31;5073221;28;20483;-63
2022/04/12 07:44:12;;;;;;;8.50;5.30;;;;;;;15.75;43.58;100903.56;5073115;28;20036;-63
2022/04/12 07:46:38;;;;;;;14.05;5.30;;;;;;;15.86;42.27;100910.59;5073054;28;20052;-63
2022/04/12 07:49:04;;;;;;;8.95;4.97;;;;;;;15.91;42.10;100908.75;5073133;28;20426;-63
2022/04/12 07:51:29;;;;;;;11.43;5.32;;;;;;;16.06;42.29;100929.00;5072812;28;20094;-63
2022/04/12 07:53:55;;;;;;;10.52;5.10;;;;;;;16.08;42.08;100908.56;5072925;28;20111;-63
2022/04/12 07:56:20;;;;;;;9.18;5.13;;;;;;;16.25;42.02;100904.81;5072544;28;20019;-63
2022/04/12 07:58:46;;;;;;;14.52;5.22;;;;;;;16.43;42.15;100903.69;5072815;28;20496;-63
2022/04/12 08:01:11;;;;;;;7.97;4.80;;;;;;;16.67;40.81;100905.19;5072785;28;20108;-62
2022/04/12 08:03:37;;;;;;;11.35;5.10;;;;;;;16.90;40.85;100904.00;5072275;28;20193;-64
2022/04/12 08:06:03;;;;;;;8.57;4.95;;;;;;;17.02;40.67;100907.38;5072761;28;20031;-63
2022/04/12 08:08:29;;;;;;;11.90;4.85;;;;;;;17.36;40.60;100906.00;5072847;28;20027;-64
2022/04/12 08:10:55;;;;;;;8.18;4.47;;;;;;;17.47;39.95;100909.34;5072919;28;20024;-63
2022/04/12 08:13:20;;;;;;;10.10;4.80;;;;;;;17.38;39.58;100914.84;5072598;28;20028;-63
2022/04/12 08:15:46;;;;;;;7.50;4.70;;;;;;;17.35;39.85;100909.56;5072565;28;20108;-63
2022/04/12 08:18:12;;;;;;;9.68;4.80;;;;;;;17.30;40.20;100915.00;5072400;28;20021;-63
2022/04/12 08:20:37;;;;;;;7.35;4.25;;;;;;;17.38;39.11;100904.16;5054659;28;20059;-63
2022/04/12 08:23:03;;;;;;;8.25;4.40;;;;;;;17.37;40.11;100910.41;5072461;28;20461;-63
2022/04/12 08:25:28;;;;;;;9.25;4.70;;;;;;;17.46;39.05;100919.16;5072416;28;20123;-63
2022/04/12 08:27:53;;;;;;;11.35;4.07;;;;;;;17.60;40.37;100910.03;5072467;28;20020;-63
2022/04/12 08:30:19;;;;;;;7.40;3.70;;;;;;;17.85;39.23;100913.19;5072212;28;20679;-63
2022/04/12 08:32:45;;;;;;;11.80;4.38;;;;;;;17.91;39.35;100905.06;5072425;28;20107;-63
2022/04/12 08:35:11;;;;;;;8.73;3.83;;;;;;;18.00;38.80;100912.91;5072255;28;20330;-63
2022/04/12 08:37:36;;;;;;;6.90;4.07;;;;;;;17.99;39.06;100909.38;5072382;28;20103;-63
2022/04/12 08:40:02;;;;;;;8.02;3.55;;;;;;;18.02;38.73;100898.59;5072128;28;20512;-63
2022/04/12 08:42:28;;;;;;;5.60;3.58;;;;;;;18.18;39.05;100901.84;5072347;28;20154;-63
2022/04/12 08:44:54;;;;;;;9.23;3.97;;;;;;;18.34;39.27;100898.88;5072295;28;20100;-63
2022/04/12 08:47:21;;;;;;;14.90;7.15;;;;;;;18.49;37.49;100890.53;5072447;28;20039;-63
2022/04/12 08:49:46;;;;;;;9.32;4.00;;;;;;;18.63;36.72;100887.53;5054070;28;20028;-63
2022/04/12 08:52:14;;;;;;;6.68;3.80;;;;;;;18.58;37.41;100884.09;5072268;28;20027;-63
2022/04/12 08:54:44;;;;;;;7.80;4.00;;;;;;;18.69;37.94;100879.41;5072252;28;20048;-63
2022/04/12 08:57:11;;;;;;;7.32;3.78;;;;;;;18.70;37.34;100871.34;5072236;28;20640;-63
2022/04/12 08:59:38;;;;;;;8.00;3.80;;;;;;;18.81;37.46;100880.97;5071994;28;20481;-63
2022/04/12 09:02:08;;;;;;;6.18;3.33;;;;;;;18.85;36.77;100875.50;5072055;28;20105;-64
2022/04/12 09:04:34;;;;;;;6.72;3.58;;;;;;;19.00;36.72;100871.56;5071499;28;20036;-63
2022/04/12 09:07:00;;;;;;;5.90;3.90;;;;;;;18.90;37.56;100876.25;5072168;28;20116;-63
2022/04/12 09:09:30;;;;;;;9.48;3.70;;;;;;;18.94;37.65;100879.75;5075144;28;20115;-63
2022/04/12 09:12:00;;;;;;;8.57;3.85;;;;;;;19.05;37.10;100872.34;5075903;28;20428;-63
2022/04/12 09:14:36;;;;;;;9.88;4.00;;;;;;;19.07;36.75;100875.88;5075922;28;20478;-63
2022/04/12 09:17:03;;;;;;;11.45;3.78;;;;;;;19.21;36.08;100883.56;5075697;28;20385;-63
2022/04/12 09:19:46;;;;;;;8.13;3.88;;;;;;;19.45;36.47;100879.41;5075656;28;20033;-63
2022/04/12 09:22:23;;;;;;;8.35;3.90;;;;;;;19.68;36.04;100866.31;5075616;28;20086;-63
2022/04/12 09:24:56;;;;;;;6.95;3.75;;;;;;;19.67;35.79;100856.53;5075737;28;20029;-63
2022/04/12 09:27:24;;;;;;;5.80;3.33;;;;;;;19.84;35.16;100844.47;5075457;28;20065;-63
2022/04/12 09:29:59;;;;;;;5.82;3.42;;;;;;;19.88;35.84;100833.59;5075414;28;20020;-63
2022/04/12 09:32:27;;;;;;;8.27;3.53;;;;;;;19.85;35.34;100846.22;5075504;28;20349;-63
2022/04/12 09:34:54;;;;;;;7.00;3.58;;;;;;;19.75;35.69;100841.13;5075667;28;20184;-63
2022/04/12 09:37:25;;;;;;;7.38;3.53;;;;;;;19.63;36.12;100837.88;5077178;28;20469;-63
2022/04/12 09:40:00;;;;;;;11.23;3.38;;;;;;;19.95;36.17;100831.63;5079250;28;20128;-63
2022/04/12 09:42:44;;;;;;;5.18;3.28;;;;;;;20.37;36.12;100831.31;5076674;28;20032;-63
2022/04/12 09:45:14;;;;;;;10.75;4.20;;;;;;;20.59;34.33;100840.50;5075869;28;20029;-63
2022/04/12 09:47:40;;;;;;;7.53;3.50;;;;;;;20.71;35.22;100836.56;5075739;28;20443;-63
2022/04/12 09:50:07;;;;;;;7.65;3.72;;;;;;;21.01;34.81;100830.19;5075175;28;20119;-63
2022/04/12 09:52:33;;;;;;;9.10;3.90;;;;;;;21.15;34.48;100843.16;5075259;28;20090;-63
2022/04/12 09:54:58;;;;;;;7.03;3.75;;;;;;;21.08;33.60;100856.88;5075038;28;20020;-63
2022/04/12 09:57:25;;;;;;;10.82;4.00;;;;;;;20.94;34.43;100846.56;5075205;28;20358;-63
2022/04/12 09:59:57;;;;;;;5.80;3.53;;;;;;;21.09;34.63;100846.06;5075018;28;20342;-63
2022/04/12 10:02:24;;;;;;;;;;;;;;;21.30;34.94;100841.81;5075636;28;20028;-63
2022/04/12 10:04:54;;;;;;;8.32;3.70;;;;;;;21.31;33.96;100851.63;5074787;28;20365;-65
2022/04/12 10:07:22;;;;;;;9.80;3.58;;;;;;;21.28;33.97;100851.72;5075065;28;20166;-63
2022/04/12 10:09:52;;;;;;;6.93;3.70;;;;;;;21.51;33.97;100837.53;5074671;28;20024;-63
2022/04/12 10:12:19;;;;;;;7.55;3.78;;;;;;;21.58;33.51;100830.13;5074884;28;20032;-64
2022/04/12 10:14:45;;;;;;;7.75;3.90;;;;;;;21.36;33.21;100827.28;5074888;28;20016;-63
2022/04/12 10:17:14;;;;;;;8.43;4.05;;;;;;;21.29;33.96;100825.72;5074985;28;20070;-63
2022/04/12 10:19:41;;;;;;;8.88;3.83;;;;;;;21.44;33.78;100819.84;5074539;28;20111;-63
2022/04/12 10:22:07;;;;;;;9.52;3.80;;;;;;;21.74;33.15;100799.94;5074503;28;20063;-63
2022/04/12 10:24:34;;;;;;;8.80;3.60;;;;;;;22.22;33.26;100801.75;5074657;28;20032;-63
2022/04/12 10:27:00;;;;;;;6.80;3.72;;;;;;;22.16;32.44;100806.53;5074488;28;20086;-64
2022/04/12 10:29:26;;;;;;;8.25;3.90;;;;;;;22.35;33.39;100799.47;5074446;28;20028;-63
2022/04/12 10:31:58;;;;;;;7.28;3.70;;;;;;;22.58;32.44;100808.50;5074314;28;20025;-63
2022/04/12 10:34:24;;;;;;;6.70;3.70;;;;;;;22.45;31.56;100791.94;5056170;28;20025;-63
2022/04/12 10:37:06;;;;;;;10.57;4.05;;;;;;;22.54;31.77;100788.00;5074332;28;20059;-63
2022/04/12 10:39:42;;;;;;;8.38;3.67;;;;;;;22.21;32.92;100791.06;5056292;28;20025;-63
2022/04/12 10:42:09;;;;;;;8.02;3.92;;;;;;;22.14;33.30;100800.31;5074206;28;20043;-63
2022/04/12 10:44:41;;;;;;;10.05;3.65;;;;;;;22.11;34.46;100797.72;5074202;28;20445;-63
2022/04/12 10:47:33;;;;;;;8.70;3.80;;;;;;;22.24;32.95;100797.22;5074246;28;20028;-63
2022/04/12 10:50:07;;;;;;;;;;;;;;;22.33;32.69;100798.69;5063707;28;20068;-63
2022/04/12 10:52:43;;;;;;;8.48;3.80;;;;;;;22.13;33.77;100795.88;5073998;28;19912;-62
2022/04/12 10:55:19;;;;;;;6.47;3.88;;;;;;;21.84;33.39;100783.47;5074020;28;20454;-63
2022/04/12 10:57:45;;;;;;;6.53;3.67;;;;;;;21.73;33.03;100784.75;5073951;28;20024;-63
2022/04/12 11:00:18;;;;;;;9.02;4.30;;;;;;;21.77;33.78;100776.56;5073630;28;20033;-63
2022/04/12 11:02:54;;;;;;;9.38;4.00;;;;;;;21.82;33.00;100767.38;5073735;28;20064;-63
2022/04/12 11:05:44;;;;;;;7.40;3.58;;;;;;;21.90;34.62;100765.28;5073706;28;20036;-63
2022/04/12 11:08:16;;;;;;;8.02;4.03;;;;;;;22.00;34.82;100760.44;5055759;28;20028;-63
2022/04/12 11:10:42;;;;;;;11.43;3.85;;;;;;;21.92;33.15;100766.09;5073325;28;20393;-62
2022/04/12 11:13:10;;;;;;;7.53;3.50;;;;;;;21.95;33.71;100779.44;5073773;28;20043;-63
2022/04/12 11:15:37;;;;;;;8.50;3.80;;;;;;;22.11;32.98;100786.94;5073555;28;20036;-63
2022/04/12 11:18:07;;;;;;;12.23;3.90;;;;;;;22.14;33.99;100787.75;5073754;28;20047;-63
2022/04/12 11:20:33;;;;;;;7.97;3.53;;;;;;;22.24;34.18;100788.25;5073388;28;20028;-63
2022/04/12 11:23:02;;;;;;;6.88;3.83;;;;;;;22.09;33.46;100794.19;5073463;28;20020;-64
2022/04/12 11:25:27;;;;;;;7.00;3.85;;;;;;;21.99;32.96;100780.22;5073228;28;20040;-63
2022/04/12 11:27:57;;;;;;;8.20;3.70;;;;;;;21.89;34.24;100766.22;5073377;28;20462;-63